Time;durP1;ratioP1;P1;durP2;ratioP2;P2;SDS_P1;SDS_P2;PMS_P1;PMS_P2;Temp;Humidity;BMP_temperature;BMP_pressure;BME280_temperature;BME280_humidity;BME280_pressure;Samples;Min_cycle;Max_cycle;Signal;HPM_P1;HPM_P2
2022/11/29 00:00:59;;;;;;;20.83;12.97;;;;;;;;;;5017202;28;21047;-53
2022/11/29 00:03:25;;;;;;;13.40;10.90;;;;;;;;;;5058618;28;20445;-53
2022/11/29 00:05:52;;;;;;;15.90;11.03;;;;;;;;;;5034235;28;23373;-53
2022/11/29 00:08:18;;;;;;;13.80;11.70;;;;;;;;;;5061124;28;20534;-53
2022/11/29 00:10:44;;;;;;;13.73;10.57;;;;;;;;;;5034969;28;21057;-53
2022/11/29 00:13:10;;;;;;;16.93;11.33;;;;;;;;;;5060143;28;20520;-53
2022/11/29 00:15:36;;;;;;;15.77;11.53;;;;;;;;;;5054776;28;20417;-52
2022/11/29 00:18:02;;;;;;;16.20;11.40;;;;;;;;;;5061044;28;20433;-53
2022/11/29 00:20:28;;;;;;;13.80;10.97;;;;;;;;;;5050668;28;20532;-53
2022/11/29 00:22:54;;;;;;;16.03;10.87;;;;;;;;;;5058784;28;20528;-53
2022/11/29 00:25:20;;;;;;;16.10;11.20;;;;;;;;;;5039691;28;20425;-53
2022/11/29 00:27:46;;;;;;;14.97;10.10;;;;;;;;;;5065060;28;20477;-53
2022/11/29 00:30:12;;;;;;;12.80;10.97;;;;;;;;;;5040580;28;20459;-53
2022/11/29 00:32:38;;;;;;;14.07;11.60;;;;;;;;;;5058638;28;20510;-53
2022/11/29 00:35:04;;;;;;;19.33;11.50;;;;;;;;;;5012392;28;20488;-56
2022/11/29 00:37:30;;;;;;;13.70;10.43;;;;;;;;;;5055502;28;20437;-54
2022/11/29 00:39:56;;;;;;;12.20;10.70;;;;;;;;;;5057310;28;20468;-53
2022/11/29 00:42:22;;;;;;;13.77;10.77;;;;;;;;;;5054848;28;20520;-54
2022/11/29 00:44:48;;;;;;;13.90;10.17;;;;;;;;;;5029797;28;20814;-53
2022/11/29 00:47:14;;;;;;;15.80;11.80;;;;;;;;;;5037492;28;21025;-53
2022/11/29 00:49:40;;;;;;;13.67;9.93;;;;;;;;;;5059703;28;20859;-54
2022/11/29 00:52:06;;;;;;;13.30;10.13;;;;;;;;;;5054102;28;20429;-54
2022/11/29 00:54:32;;;;;;;13.77;11.00;;;;;;;;;;5056798;28;20926;-52
2022/11/29 00:56:58;;;;;;;18.10;11.23;;;;;;;;;;5062262;28;21300;-53
2022/11/29 00:59:24;;;;;;;16.73;11.93;;;;;;;;;;5059654;28;20453;-53
2022/11/29 01:01:50;;;;;;;12.03;10.57;;;;;;;;;;5041823;28;21050;-54
2022/11/29 01:04:16;;;;;;;11.63;9.77;;;;;;;;;;5060982;28;20446;-53
2022/11/29 01:06:42;;;;;;;15.93;11.87;;;;;;;;;;5047927;28;21148;-56
2022/11/29 01:09:08;;;;;;;14.13;10.67;;;;;;;;;;5050802;28;20526;-53
2022/11/29 01:11:34;;;;;;;16.03;11.97;;;;;;;;;;5053702;28;20437;-53
2022/11/29 01:14:01;;;;;;;11.13;9.73;;;;;;;;;;5060164;28;20441;-53
2022/11/29 01:16:28;;;;;;;14.57;9.80;;;;;;;;;;5050140;28;20786;-54
2022/11/29 01:18:53;;;;;;;10.90;9.40;;;;;;;;;;5044652;28;20969;-53
2022/11/29 01:21:20;;;;;;;16.50;10.13;;;;;;;;;;5057166;28;20430;-54
2022/11/29 01:23:46;;;;;;;12.90;8.90;;;;;;;;;;5037193;28;20435;-52
2022/11/29 01:26:13;;;;;;;12.30;9.87;;;;;;;;;;5060282;28;20445;-53
2022/11/29 01:28:39;;;;;;;14.60;9.70;;;;;;;;;;5052203;28;20476;-53
2022/11/29 01:31:09;;;;;;;12.93;10.20;;;;;;;;;;5055304;28;20436;-53
2022/11/29 01:33:35;;;;;;;11.27;9.93;;;;;;;;;;5031382;28;20460;-53
2022/11/29 01:36:01;;;;;;;10.43;8.90;;;;;;;;;;5053872;28;20540;-56
2022/11/29 01:38:27;;;;;;;13.37;9.17;;;;;;;;;;5006545;28;20450;-53
2022/11/29 01:40:57;;;;;;;12.63;9.00;;;;;;;;;;5051806;28;20429;-57
2022/11/29 01:43:23;;;;;;;11.10;9.23;;;;;;;;;;5045867;28;20429;-53
2022/11/29 01:45:49;;;;;;;14.60;9.50;;;;;;;;;;5056577;28;20438;-53
2022/11/29 01:48:15;;;;;;;10.03;8.70;;;;;;;;;;5024250;28;20546;-54
2022/11/29 01:50:41;;;;;;;11.73;9.67;;;;;;;;;;5045006;28;20935;-53
2022/11/29 01:53:07;;;;;;;13.87;10.63;;;;;;;;;;5034345;28;21105;-53
2022/11/29 01:55:35;;;;;;;10.17;8.73;;;;;;;;;;5074064;28;20429;-53
2022/11/29 01:58:01;;;;;;;11.37;10.17;;;;;;;;;;5049190;28;20445;-53
2022/11/29 02:00:27;;;;;;;11.90;9.00;;;;;;;;;;5059949;28;20914;-53
2022/11/29 02:03:05;;;;;;;11.20;9.00;;;;;;;;;;5050644;28;20444;-53
2022/11/29 02:05:30;;;;;;;10.83;9.00;;;;;;;;;;5055596;28;20490;-52
2022/11/29 02:07:57;;;;;;;11.97;8.93;;;;;;;;;;5021870;28;20480;-53
2022/11/29 02:10:25;;;;;;;10.73;8.70;;;;;;;;;;5045157;28;20461;-53
2022/11/29 02:12:51;;;;;;;10.63;8.23;;;;;;;;;;5033772;28;22121;-53
2022/11/29 02:15:36;;;;;;;13.10;9.87;;;;;;;;;;5057353;28;20433;-53
2022/11/29 02:18:04;;;;;;;12.00;9.77;;;;;;;;;;5026808;28;20434;-52
2022/11/29 02:20:33;;;;;;;11.43;9.20;;;;;;;;;;5058583;28;20438;-53
2022/11/29 02:23:15;;;;;;;10.90;8.30;;;;;;;;;;5030760;28;20433;-52
2022/11/29 02:25:47;;;;;;;11.53;8.87;;;;;;;;;;5054542;28;20792;-53
2022/11/29 02:28:32;;;;;;;10.13;8.60;;;;;;;;;;5056787;28;20496;-52
2022/11/29 02:31:01;;;;;;;10.00;8.40;;;;;;;;;;5059704;28;20456;-51
2022/11/29 02:33:54;;;;;;;9.17;7.90;;;;;;;;;;5055434;28;20574;-53
2022/11/29 02:36:23;;;;;;;9.80;6.77;;;;;;;;;;5046457;28;20444;-53
2022/11/29 02:39:18;;;;;;;11.30;7.60;;;;;;;;;;5016426;28;20434;-53
2022/11/29 02:42:03;;;;;;;11.00;8.10;;;;;;;;;;5027306;28;20435;-53
2022/11/29 02:44:29;;;;;;;10.47;8.03;;;;;;;;;;5039137;28;20457;-53
2022/11/29 02:47:01;;;;;;;9.10;7.10;;;;;;;;;;5060405;28;20430;-54
2022/11/29 02:49:33;;;;;;;9.90;7.13;;;;;;;;;;5022981;28;22582;-54
2022/11/29 02:52:00;;;;;;;8.27;6.87;;;;;;;;;;5074726;28;20459;-53
2022/11/29 02:54:35;;;;;;;8.63;7.00;;;;;;;;;;5052134;28;21259;-56
2022/11/29 02:57:07;;;;;;;8.90;6.87;;;;;;;;;;5042684;28;21349;-50
2022/11/29 02:59:48;;;;;;;10.73;8.10;;;;;;;;;;5077356;28;20970;-55
2022/11/29 03:02:34;;;;;;;10.60;7.53;;;;;;;;;;5046813;28;20536;-54
2022/11/29 03:05:03;;;;;;;11.13;7.90;;;;;;;;;;5052223;28;20929;-55
2022/11/29 03:07:35;;;;;;;8.07;7.23;;;;;;;;;;5056672;28;21029;-54
2022/11/29 03:10:05;;;;;;;10.10;7.60;;;;;;;;;;5075796;28;20879;-56
2022/11/29 03:12:31;;;;;;;7.97;6.17;;;;;;;;;;5017650;28;20430;-54
2022/11/29 03:15:02;;;;;;;8.23;7.30;;;;;;;;;;5063818;28;20493;-54
2022/11/29 03:17:43;;;;;;;8.67;6.87;;;;;;;;;;5054830;28;21278;-54
2022/11/29 03:20:28;;;;;;;11.40;7.00;;;;;;;;;;5055538;28;20433;-55
2022/11/29 03:23:03;;;;;;;11.60;8.47;;;;;;;;;;5033064;28;20461;-53
2022/11/29 03:25:32;;;;;;;10.73;7.30;;;;;;;;;;5061823;28;20429;-55
2022/11/29 03:27:58;;;;;;;9.53;8.00;;;;;;;;;;5037627;28;20986;-54
2022/11/29 03:30:24;;;;;;;7.30;6.30;;;;;;;;;;5054674;28;20460;-56
2022/11/29 03:32:56;;;;;;;10.80;7.50;;;;;;;;;;5050839;28;20517;-54
2022/11/29 03:35:37;;;;;;;8.90;7.43;;;;;;;;;;5054096;28;20538;-55
2022/11/29 03:38:08;;;;;;;8.73;6.93;;;;;;;;;;5036951;28;20441;-54
2022/11/29 03:40:40;;;;;;;9.57;7.43;;;;;;;;;;5042357;28;20511;-54
2022/11/29 03:43:07;;;;;;;9.73;6.93;;;;;;;;;;5027448;28;20445;-54
2022/11/29 03:45:35;;;;;;;9.40;7.13;;;;;;;;;;5054309;28;20438;-55
2022/11/29 03:48:27;;;;;;;9.30;7.33;;;;;;;;;;5033351;28;20980;-53
2022/11/29 03:50:54;;;;;;;9.10;7.27;;;;;;;;;;5039511;28;20490;-54
2022/11/29 03:53:28;;;;;;;10.10;7.50;;;;;;;;;;5037233;28;20533;-54
2022/11/29 03:55:58;;;;;;;8.47;6.70;;;;;;;;;;5070741;28;20449;-54
2022/11/29 03:58:43;;;;;;;10.40;8.53;;;;;;;;;;5056934;28;20550;-55
2022/11/29 04:01:18;;;;;;;9.67;7.57;;;;;;;;;;5042591;28;20481;-54
2022/11/29 04:03:47;;;;;;;9.33;7.40;;;;;;;;;;5061889;28;20440;-54
2022/11/29 04:06:39;;;;;;;7.90;7.10;;;;;;;;;;5037413;28;20440;-54
2022/11/29 04:09:11;;;;;;;9.10;7.43;;;;;;;;;;5034383;28;20591;-58
2022/11/29 04:11:58;;;;;;;11.90;7.70;;;;;;;;;;5057102;28;20520;-56
2022/11/29 04:14:31;;;;;;;8.80;7.00;;;;;;;;;;5058282;28;20450;-55
2022/11/29 04:17:15;;;;;;;8.67;7.13;;;;;;;;;;5031560;28;20934;-59
2022/11/29 04:19:44;;;;;;;7.70;5.33;;;;;;;;;;5062173;28;21408;-55
2022/11/29 04:22:13;;;;;;;7.63;6.17;;;;;;;;;;5057364;28;20429;-54
2022/11/29 04:24:54;;;;;;;6.40;5.20;;;;;;;;;;5056344;28;20440;-55
2022/11/29 04:27:23;;;;;;;6.73;5.77;;;;;;;;;;5021165;28;20497;-56
2022/11/29 04:29:49;;;;;;;7.00;5.83;;;;;;;;;;5053471;28;21224;-55
2022/11/29 04:32:34;;;;;;;8.10;6.07;;;;;;;;;;5038718;28;20452;-55
2022/11/29 04:35:11;;;;;;;5.37;4.13;;;;;;;;;;5057244;28;20484;-54
2022/11/29 04:37:46;;;;;;;9.10;4.70;;;;;;;;;;5044562;28;20438;-54
2022/11/29 04:40:21;;;;;;;5.40;4.60;;;;;;;;;;5058156;28;20437;-53
2022/11/29 04:43:05;;;;;;;6.03;4.00;;;;;;;;;;5051463;28;20465;-63
2022/11/29 04:46:04;;;;;;;6.90;4.67;;;;;;;;;;5076057;28;20446;-53
2022/11/29 04:48:30;;;;;;;3.67;2.80;;;;;;;;;;5033611;28;20524;-53
2022/11/29 04:51:11;;;;;;;4.80;3.97;;;;;;;;;;5055641;28;20460;-57
2022/11/29 04:53:37;;;;;;;4.27;3.03;;;;;;;;;;5049382;28;20441;-53
2022/11/29 04:56:06;;;;;;;5.40;3.00;;;;;;;;;;5034332;28;20945;-56
2022/11/29 04:58:37;;;;;;;3.73;3.33;;;;;;;;;;5048859;28;20437;-54
2022/11/29 05:01:22;;;;;;;3.20;2.30;;;;;;;;;;5030986;28;20567;-53
2022/11/29 05:04:02;;;;;;;3.47;2.67;;;;;;;;;;5062996;28;20464;-54
2022/11/29 05:06:39;;;;;;;4.70;2.83;;;;;;;;;;5052762;28;20449;-54
2022/11/29 05:09:05;;;;;;;4.97;2.90;;;;;;;;;;5067457;28;20475;-54
2022/11/29 05:11:49;;;;;;;2.93;2.37;;;;;;;;;;5053282;28;21192;-54
2022/11/29 05:14:34;;;;;;;5.07;2.90;;;;;;;;;;5062851;28;20425;-54
2022/11/29 05:17:03;;;;;;;4.30;2.60;;;;;;;;;;5040048;28;20441;-54
2022/11/29 05:19:51;;;;;;;3.70;2.63;;;;;;;;;;5073395;28;20518;-53
2022/11/29 05:22:23;;;;;;;8.33;2.87;;;;;;;;;;5007888;28;20542;-55
2022/11/29 05:24:51;;;;;;;6.60;2.73;;;;;;;;;;5042604;28;20513;-55
2022/11/29 05:27:19;;;;;;;4.30;2.73;;;;;;;;;;5046201;28;20909;-52
2022/11/29 05:30:05;;;;;;;4.13;2.93;;;;;;;;;;5060962;28;20519;-54
2022/11/29 05:32:31;;;;;;;3.00;2.70;;;;;;;;;;5049734;28;20519;-53
2022/11/29 05:35:16;;;;;;;4.37;3.50;;;;;;;;;;5056826;28;20441;-54
2022/11/29 05:37:43;;;;;;;3.90;2.90;;;;;;;;;;5025542;28;21077;-54
2022/11/29 05:40:42;;;;;;;4.07;2.53;;;;;;;;;;5050973;28;20437;-55
2022/11/29 05:43:20;;;;;;;5.10;3.10;;;;;;;;;;5031724;28;20441;-54
2022/11/29 05:45:46;;;;;;;3.50;3.07;;;;;;;;;;5052279;28;20438;-54
2022/11/29 05:48:12;;;;;;;3.63;2.90;;;;;;;;;;5050841;28;20590;-53
2022/11/29 05:50:44;;;;;;;3.43;2.70;;;;;;;;;;5048663;28;21094;-53
2022/11/29 05:53:29;;;;;;;4.10;3.47;;;;;;;;;;5035981;28;20464;-55
2022/11/29 05:56:01;;;;;;;3.57;2.73;;;;;;;;;;5039497;28;20492;-53
2022/11/29 05:58:31;;;;;;;3.03;2.73;;;;;;;;;;5044803;28;20418;-52
2022/11/29 06:00:59;;;;;;;4.40;3.00;;;;;;;;;;5051056;28;20422;-52
2022/11/29 06:03:36;;;;;;;2.67;2.23;;;;;;;;;;5055185;28;20445;-53
2022/11/29 06:06:07;;;;;;;3.23;2.93;;;;;;;;;;5056152;28;21164;-52
2022/11/29 06:08:36;;;;;;;4.23;3.20;;;;;;;;;;5054413;28;20552;-52
2022/11/29 06:11:05;;;;;;;3.33;3.03;;;;;;;;;;5035620;28;20829;-53
2022/11/29 06:13:50;;;;;;;3.70;2.97;;;;;;;;;;5054403;28;20983;-51
2022/11/29 06:16:34;;;;;;;3.30;3.00;;;;;;;;;;5031192;28;20460;-52
2022/11/29 06:19:19;;;;;;;4.43;3.83;;;;;;;;;;5061606;28;20430;-52
2022/11/29 06:21:53;;;;;;;6.10;3.80;;;;;;;;;;5015010;28;20460;-52
2022/11/29 06:24:25;;;;;;;4.90;4.00;;;;;;;;;;5059866;28;20533;-53
2022/11/29 06:27:03;;;;;;;5.67;4.33;;;;;;;;;;5059735;28;20445;-53
2022/11/29 06:29:32;;;;;;;4.67;3.70;;;;;;;;;;5072419;28;20961;-56
2022/11/29 06:32:02;;;;;;;8.00;5.60;;;;;;;;;;5059090;28;20476;-52
2022/11/29 06:34:40;;;;;;;5.27;3.40;;;;;;;;;;5039402;28;20449;-52
2022/11/29 06:37:16;;;;;;;4.90;4.20;;;;;;;;;;5058869;28;20434;-54
2022/11/29 06:39:42;;;;;;;5.20;3.77;;;;;;;;;;5059347;28;20437;-57
2022/11/29 06:42:08;;;;;;;5.27;4.03;;;;;;;;;;5058643;28;20477;-53
2022/11/29 06:44:34;;;;;;;4.53;3.87;;;;;;;;;;5034800;28;20542;-54
2022/11/29 06:47:03;;;;;;;5.10;4.00;;;;;;;;;;5068925;28;20433;-53
2022/11/29 06:49:32;;;;;;;5.30;3.97;;;;;;;;;;5076091;28;20450;-54
2022/11/29 06:52:17;;;;;;;4.77;3.53;;;;;;;;;;5062051;28;20453;-53
2022/11/29 06:54:43;;;;;;;6.37;4.00;;;;;;;;;;5018029;28;21141;-53
2022/11/29 06:57:26;;;;;;;5.43;4.70;;;;;;;;;;5063589;28;20523;-53
2022/11/29 07:00:04;;;;;;;4.17;3.77;;;;;;;;;;5056179;28;20178;-53
2022/11/29 07:02:48;;;;;;;6.20;4.33;;;;;;;;;;5061146;28;20552;-54
2022/11/29 07:05:15;;;;;;;5.40;4.30;;;;;;;;;;5056076;28;20445;-54
2022/11/29 07:07:41;;;;;;;4.30;3.70;;;;;;;;;;5053259;28;20461;-53
2022/11/29 07:10:12;;;;;;;5.77;4.20;;;;;;;;;;5050864;28;20588;-54
2022/11/29 07:12:38;;;;;;;5.27;4.10;;;;;;;;;;5062141;28;20441;-54
2022/11/29 07:15:05;;;;;;;4.80;4.10;;;;;;;;;;5031780;28;20959;-55
2022/11/29 07:17:53;;;;;;;6.80;5.30;;;;;;;;;;5063534;28;21150;-54
2022/11/29 07:20:21;;;;;;;5.03;4.27;;;;;;;;;;5061736;28;20426;-55
2022/11/29 07:23:08;;;;;;;5.07;4.20;;;;;;;;;;5064863;28;20536;-55
2022/11/29 07:25:43;;;;;;;5.93;4.67;;;;;;;;;;5054730;28;20734;-54
2022/11/29 07:28:18;;;;;;;5.73;5.13;;;;;;;;;;5062272;28;20560;-53
2022/11/29 07:30:56;;;;;;;7.03;4.90;;;;;;;;;;5016210;28;20454;-55
2022/11/29 07:33:29;;;;;;;5.13;4.13;;;;;;;;;;5061382;28;21012;-53
2022/11/29 07:35:58;;;;;;;4.70;4.10;;;;;;;;;;5049596;28;20893;-54
2022/11/29 07:38:31;;;;;;;4.73;4.27;;;;;;;;;;5061692;28;20465;-54
2022/11/29 07:41:01;;;;;;;5.70;4.40;;;;;;;;;;5063753;28;20449;-52
2022/11/29 07:43:38;;;;;;;4.17;3.77;;;;;;;;;;5056236;28;20463;-54
2022/11/29 07:46:04;;;;;;;5.73;4.43;;;;;;;;;;5032415;28;20506;-53
2022/11/29 07:48:30;;;;;;;5.30;4.17;;;;;;;;;;5064514;28;20970;-53
2022/11/29 07:50:56;;;;;;;5.50;4.20;;;;;;;;;;5057568;28;20433;-53
2022/11/29 07:53:22;;;;;;;4.70;3.97;;;;;;;;;;5061648;28;20449;-52
2022/11/29 07:55:48;;;;;;;4.63;4.00;;;;;;;;;;5054595;28;21394;-54
2022/11/29 07:58:15;;;;;;;5.50;4.30;;;;;;;;;;5063172;28;21065;-53
2022/11/29 08:00:41;;;;;;;5.10;4.20;;;;;;;;;;5025023;28;20922;-53
2022/11/29 08:03:07;;;;;;;6.13;4.67;;;;;;;;;;5063411;28;21013;-53
2022/11/29 08:05:34;;;;;;;5.07;4.30;;;;;;;;;;5036897;28;20525;-54
2022/11/29 08:08:00;;;;;;;5.70;4.50;;;;;;;;;;5063722;28;20484;-53
2022/11/29 08:10:25;;;;;;;4.80;3.77;;;;;;;;;;5054606;28;20444;-53
2022/11/29 08:12:51;;;;;;;4.53;4.07;;;;;;;;;;5054416;28;20437;-54
2022/11/29 08:15:20;;;;;;;5.73;4.33;;;;;;;;;;5016676;28;23974;-54
2022/11/29 08:17:46;;;;;;;5.00;3.87;;;;;;;;;;5062461;28;20433;-54
2022/11/29 08:20:12;;;;;;;7.03;3.83;;;;;;;;;;5054967;28;20532;-54
2022/11/29 08:22:38;;;;;;;5.30;4.17;;;;;;;;;;5065305;28;20433;-53
2022/11/29 08:25:04;;;;;;;5.03;3.97;;;;;;;;;;5060439;28;20602;-54
2022/11/29 08:27:31;;;;;;;5.57;4.40;;;;;;;;;;5064720;28;20835;-53
2022/11/29 08:29:57;;;;;;;6.00;4.13;;;;;;;;;;5048993;28;21779;-54
2022/11/29 08:32:23;;;;;;;5.83;4.07;;;;;;;;;;5011782;28;20438;-54
2022/11/29 08:34:48;;;;;;;8.37;5.10;;;;;;;;;;5054103;28;20995;-54
2022/11/29 08:37:14;;;;;;;4.57;3.60;;;;;;;;;;5033256;28;20449;-53
2022/11/29 08:39:40;;;;;;;7.63;4.27;;;;;;;;;;5052650;28;20425;-54
2022/11/29 08:42:06;;;;;;;6.70;4.87;;;;;;;;;;5034874;28;20437;-53
2022/11/29 08:44:32;;;;;;;7.93;4.10;;;;;;;;;;5046316;28;20556;-53
2022/11/29 08:50:01;;;;;;;9.20;5.57;;;;;;;;;;5052629;28;20474;-55
2022/11/29 08:55:13;;;;;;;5.60;4.07;;;;;;;;;;5049899;28;20484;-63
2022/11/29 08:57:39;;;;;;;6.07;4.73;;;;;;;;;;5035381;28;20952;-56
2022/11/29 09:00:05;;;;;;;4.23;3.83;;;;;;;;;;5056583;28;20528;-61
2022/11/29 09:02:31;;;;;;;5.03;4.40;;;;;;;;;;5050993;28;20449;-56
2022/11/29 09:04:57;;;;;;;7.53;4.10;;;;;;;;;;5058186;28;20433;-55
2022/11/29 09:07:23;;;;;;;6.87;4.43;;;;;;;;;;5017609;28;20503;-55
2022/11/29 09:09:49;;;;;;;5.43;4.43;;;;;;;;;;5057604;28;20916;-56
2022/11/29 09:12:15;;;;;;;6.67;4.87;;;;;;;;;;5059892;28;20444;-56
2022/11/29 09:14:41;;;;;;;9.37;5.90;;;;;;;;;;5036938;28;20437;-55
2022/11/29 09:17:07;;;;;;;6.77;5.00;;;;;;;;;;5032821;28;20464;-55
2022/11/29 09:19:33;;;;;;;6.37;4.83;;;;;;;;;;5059074;28;20513;-54
2022/11/29 09:21:59;;;;;;;6.40;4.40;;;;;;;;;;5034441;28;20449;-53
2022/11/29 09:24:24;;;;;;;7.60;5.37;;;;;;;;;;5059202;28;20422;-53
2022/11/29 09:26:50;;;;;;;6.60;4.60;;;;;;;;;;5050521;28;20434;-55
2022/11/29 09:29:16;;;;;;;7.30;4.93;;;;;;;;;;5054857;28;20481;-55
2022/11/29 09:31:44;;;;;;;8.43;4.87;;;;;;;;;;5047235;28;20452;-54
2022/11/29 09:34:12;;;;;;;6.50;4.77;;;;;;;;;;5058465;28;20429;-54
2022/11/29 09:36:38;;;;;;;7.57;5.67;;;;;;;;;;5012281;28;21035;-56
2022/11/29 09:39:04;;;;;;;7.50;4.80;;;;;;;;;;5059347;28;20483;-53
2022/11/29 09:41:30;;;;;;;6.93;5.23;;;;;;;;;;5047470;28;20436;-55
2022/11/29 09:44:05;;;;;;;8.07;5.80;;;;;;;;;;5062619;28;20926;-54
2022/11/29 09:46:38;;;;;;;10.37;6.63;;;;;;;;;;5060317;28;20437;-53
2022/11/29 09:49:25;;;;;;;7.07;5.97;;;;;;;;;;5060568;28;20485;-54
2022/11/29 09:51:54;;;;;;;10.63;6.73;;;;;;;;;;5041058;28;23837;-54
2022/11/29 09:54:35;;;;;;;9.77;6.27;;;;;;;;;;5061685;28;20430;-54
2022/11/29 09:57:02;;;;;;;7.23;5.23;;;;;;;;;;5034516;28;20446;-54
2022/11/29 09:59:28;;;;;;;12.40;6.50;;;;;;;;;;5059328;28;20441;-54
2022/11/29 10:01:57;;;;;;;10.93;6.40;;;;;;;;;;5047694;28;20506;-55
2022/11/29 10:04:24;;;;;;;9.87;6.43;;;;;;;;;;5056696;28;20429;-54
2022/11/29 10:07:06;;;;;;;7.70;5.73;;;;;;;;;;5053457;28;20661;-55
2022/11/29 10:09:45;;;;;;;8.57;6.30;;;;;;;;;;5060515;28;20495;-55
2022/11/29 10:12:17;;;;;;;9.63;6.60;;;;;;;;;;5017327;28;20479;-55
2022/11/29 10:14:50;;;;;;;10.57;6.17;;;;;;;;;;5074361;28;20421;-54
2022/11/29 10:17:36;;;;;;;11.33;7.50;;;;;;;;;;5018100;28;20488;-55
2022/11/29 10:20:22;;;;;;;10.80;6.00;;;;;;;;;;5060041;28;20461;-55
2022/11/29 10:22:56;;;;;;;12.83;7.20;;;;;;;;;;5040494;28;20530;-54
2022/11/29 10:25:27;;;;;;;13.97;8.80;;;;;;;;;;5061849;28;20516;-56
2022/11/29 10:27:53;;;;;;;9.50;6.37;;;;;;;;;;5031713;28;20474;-56
2022/11/29 10:30:19;;;;;;;11.90;6.87;;;;;;;;;;5056522;28;20442;-59
2022/11/29 10:32:46;;;;;;;11.17;6.97;;;;;;;;;;5024574;28;20456;-54
2022/11/29 10:35:13;;;;;;;14.43;7.93;;;;;;;;;;5050364;28;20434;-55
2022/11/29 10:37:39;;;;;;;11.10;6.57;;;;;;;;;;5030483;28;20525;-55
2022/11/29 10:40:07;;;;;;;17.90;8.00;;;;;;;;;;5060183;28;20525;-54
2022/11/29 10:42:48;;;;;;;13.10;7.27;;;;;;;;;;5039251;28;20436;-55
2022/11/29 10:45:14;;;;;;;15.53;7.80;;;;;;;;;;5059400;28;20524;-54
2022/11/29 10:47:40;;;;;;;13.50;7.83;;;;;;;;;;5013043;28;20553;-55
2022/11/29 10:50:06;;;;;;;18.80;9.90;;;;;;;;;;5059893;28;20449;-55
2022/11/29 10:52:33;;;;;;;14.57;10.23;;;;;;;;;;5050124;28;20449;-55
2022/11/29 10:54:59;;;;;;;16.40;9.37;;;;;;;;;;5059024;28;20528;-55
2022/11/29 10:57:25;;;;;;;15.37;8.50;;;;;;;;;;5050821;28;20529;-54
2022/11/29 11:00:05;;;;;;;17.40;11.60;;;;;;;;;;5059874;28;20808;-55
2022/11/29 11:02:31;;;;;;;18.40;11.23;;;;;;;;;;5025609;28;20445;-55
2022/11/29 11:04:57;;;;;;;20.23;10.90;;;;;;;;;;5061215;28;20457;-53
2022/11/29 11:07:27;;;;;;;14.07;9.17;;;;;;;;;;5036721;28;21017;-54
2022/11/29 11:09:53;;;;;;;11.17;8.50;;;;;;;;;;5064202;28;20441;-54
2022/11/29 11:12:19;;;;;;;13.50;7.87;;;;;;;;;;5054625;28;21157;-54
2022/11/29 11:14:45;;;;;;;12.97;9.37;;;;;;;;;;5080203;28;20517;-53
2022/11/29 11:17:30;;;;;;;12.50;9.67;;;;;;;;;;5017735;28;21027;-55
2022/11/29 11:20:03;;;;;;;11.90;8.47;;;;;;;;;;5061539;28;20443;-55
2022/11/29 11:22:30;;;;;;;13.80;10.73;;;;;;;;;;5017661;28;20441;-55
2022/11/29 11:24:57;;;;;;;13.83;8.77;;;;;;;;;;5055876;28;22758;-57
2022/11/29 11:27:29;;;;;;;12.57;8.57;;;;;;;;;;5035904;28;20956;-55
2022/11/29 11:29:55;;;;;;;11.80;8.40;;;;;;;;;;5066232;28;20441;-53
2022/11/29 11:32:21;;;;;;;11.57;8.57;;;;;;;;;;5067863;28;20972;-55
2022/11/29 11:34:51;;;;;;;13.57;8.40;;;;;;;;;;5062078;28;20954;-55
2022/11/29 11:37:21;;;;;;;10.77;8.63;;;;;;;;;;5027118;28;20438;-55
2022/11/29 11:39:48;;;;;;;11.10;8.20;;;;;;;;;;5063001;28;20445;-56
2022/11/29 11:45:00;;;;;;;11.60;9.00;;;;;;;;;;5068744;28;20439;-55
2022/11/29 11:47:27;;;;;;;10.90;7.90;;;;;;;;;;5029863;28;20544;-55
2022/11/29 11:49:54;;;;;;;8.97;6.63;;;;;;;;;;5061841;28;21030;-54
2022/11/29 11:52:21;;;;;;;8.90;6.80;;;;;;;;;;5052484;28;20449;-55
2022/11/29 11:55:10;;;;;;;10.93;7.47;;;;;;;;;;5064789;28;20793;-54
2022/11/29 11:57:36;;;;;;;10.93;7.33;;;;;;;;;;5024014;28;20477;-54
2022/11/29 12:00:03;;;;;;;11.73;7.73;;;;;;;;;;5063720;28;20433;-54
2022/11/29 12:02:30;;;;;;;9.10;6.53;;;;;;;;;;5052560;28;20438;-54
2022/11/29 12:04:57;;;;;;;8.70;7.13;;;;;;;;;;5058111;28;20444;-55
2022/11/29 12:07:25;;;;;;;8.10;6.20;;;;;;;;;;5047963;28;20963;-54
2022/11/29 12:09:52;;;;;;;9.50;6.10;;;;;;;;;;5056472;28;20433;-53
2022/11/29 12:12:29;;;;;;;9.70;7.40;;;;;;;;;;5053704;28;20527;-55
2022/11/29 12:14:55;;;;;;;8.40;6.60;;;;;;;;;;5077402;28;21096;-54
2022/11/29 12:17:27;;;;;;;7.73;6.37;;;;;;;;;;5042065;28;20533;-52
2022/11/29 12:19:56;;;;;;;8.10;6.43;;;;;;;;;;5055175;28;20434;-54
2022/11/29 12:22:23;;;;;;;10.03;7.13;;;;;;;;;;5060471;28;20437;-53
2022/11/29 12:24:54;;;;;;;6.40;5.73;;;;;;;;;;5062732;28;20806;-53
2022/11/29 12:27:20;;;;;;;8.60;6.60;;;;;;;;;;5058070;28;20441;-55
2022/11/29 12:29:46;;;;;;;7.13;5.30;;;;;;;;;;5062377;28;20445;-55
2022/11/29 12:32:26;;;;;;;6.53;5.93;;;;;;;;;;5008721;28;20430;-55
2022/11/29 12:34:58;;;;;;;7.87;6.00;;;;;;;;;;5062670;28;20468;-55
2022/11/29 12:37:36;;;;;;;6.57;5.70;;;;;;;;;;5032979;28;20490;-58
2022/11/29 12:40:05;;;;;;;11.60;5.70;;;;;;;;;;5061350;28;20418;-55
2022/11/29 12:42:36;;;;;;;5.83;5.23;;;;;;;;;;5060693;28;21231;-55
2022/11/29 12:45:11;;;;;;;6.83;5.20;;;;;;;;;;5063335;28;20424;-55
2022/11/29 12:48:10;;;;;;;5.47;4.37;;;;;;;;;;5052363;28;20540;-55
2022/11/29 12:50:45;;;;;;;6.70;5.40;;;;;;;;;;5043661;28;20448;-55
2022/11/29 12:53:24;;;;;;;6.30;5.67;;;;;;;;;;5062050;28;20467;-55
2022/11/29 12:55:50;;;;;;;6.67;5.33;;;;;;;;;;5066431;28;20421;-54
2022/11/29 12:58:22;;;;;;;6.67;5.80;;;;;;;;;;5052201;28;20495;-54
2022/11/29 13:00:54;;;;;;;6.10;5.50;;;;;;;;;;5065089;28;20179;-58
2022/11/29 13:03:24;;;;;;;5.47;4.93;;;;;;;;;;5051479;28;20448;-62
2022/11/29 13:06:03;;;;;;;7.30;6.07;;;;;;;;;;5062188;28;20444;-59
2022/11/29 13:08:38;;;;;;;6.33;5.73;;;;;;;;;;5033715;28;20496;-54
2022/11/29 13:11:23;;;;;;;10.27;7.30;;;;;;;;;;5054029;28;20462;-54
2022/11/29 13:13:52;;;;;;;7.13;6.10;;;;;;;;;;5039836;28;21380;-55
2022/11/29 13:16:30;;;;;;;6.50;5.00;;;;;;;;;;5048881;28;20434;-55
2022/11/29 13:18:59;;;;;;;10.37;6.03;;;;;;;;;;5025962;28;20444;-54
2022/11/29 13:21:46;;;;;;;7.93;6.20;;;;;;;;;;5059558;28;20430;-58
2022/11/29 13:24:30;;;;;;;5.87;5.27;;;;;;;;;;5059655;28;20445;-54
2022/11/29 13:26:56;;;;;;;5.43;4.90;;;;;;;;;;5043180;28;20525;-55
2022/11/29 13:29:22;;;;;;;7.40;6.37;;;;;;;;;;5054660;28;20473;-55
2022/11/29 13:31:48;;;;;;;6.23;5.63;;;;;;;;;;5060596;28;20216;-55
2022/11/29 13:34:19;;;;;;;7.07;5.27;;;;;;;;;;5051791;28;20567;-53
2022/11/29 13:37:10;;;;;;;7.70;6.90;;;;;;;;;;5053076;28;22591;-54
2022/11/29 13:39:56;;;;;;;7.90;5.87;;;;;;;;;;5061534;28;20484;-54
2022/11/29 13:42:25;;;;;;;5.93;5.33;;;;;;;;;;5031321;28;20961;-54
2022/11/29 13:45:04;;;;;;;6.77;5.93;;;;;;;;;;5058001;28;20434;-54
2022/11/29 13:47:30;;;;;;;6.53;5.10;;;;;;;;;;5055925;28;20478;-53
2022/11/29 13:50:03;;;;;;;8.50;6.37;;;;;;;;;;5051509;28;20457;-54
2022/11/29 13:52:32;;;;;;;7.17;6.33;;;;;;;;;;5055048;28;20646;-55
2022/11/29 13:55:04;;;;;;;6.40;5.60;;;;;;;;;;5061763;28;20895;-54
2022/11/29 13:57:45;;;;;;;6.77;5.57;;;;;;;;;;5038089;28;20873;-54
2022/11/29 14:00:27;;;;;;;7.90;6.50;;;;;;;;;;5060591;28;20437;-55
2022/11/29 14:02:53;;;;;;;9.10;5.70;;;;;;;;;;5059050;28;20437;-55
2022/11/29 14:05:23;;;;;;;6.43;5.50;;;;;;;;;;5051206;28;20445;-53
2022/11/29 14:08:08;;;;;;;8.23;5.90;;;;;;;;;;5042626;28;20496;-56
2022/11/29 14:10:34;;;;;;;7.03;5.47;;;;;;;;;;5061621;28;21022;-56
2022/11/29 14:13:00;;;;;;;8.10;6.20;;;;;;;;;;5019766;28;20459;-57
2022/11/29 14:15:27;;;;;;;6.80;5.77;;;;;;;;;;5059420;28;20558;-55
2022/11/29 14:18:06;;;;;;;7.73;6.63;;;;;;;;;;5026721;28;21279;-55
2022/11/29 14:20:39;;;;;;;7.20;6.20;;;;;;;;;;5032998;28;20426;-55
2022/11/29 14:23:06;;;;;;;10.20;6.13;;;;;;;;;;5056673;28;20433;-55
2022/11/29 14:25:32;;;;;;;8.57;5.67;;;;;;;;;;5061431;28;20429;-56
2022/11/29 14:28:00;;;;;;;8.30;6.33;;;;;;;;;;5056657;28;20484;-54
2022/11/29 14:30:32;;;;;;;9.30;7.27;;;;;;;;;;5057037;28;20534;-55
2022/11/29 14:33:04;;;;;;;9.77;6.30;;;;;;;;;;5056239;28;20433;-54
2022/11/29 14:35:31;;;;;;;7.80;6.30;;;;;;;;;;5058684;28;20438;-54
2022/11/29 14:38:18;;;;;;;9.20;6.30;;;;;;;;;;5071064;28;20961;-55
2022/11/29 14:40:48;;;;;;;8.80;6.27;;;;;;;;;;5065498;28;20497;-54
2022/11/29 14:43:35;;;;;;;7.33;6.27;;;;;;;;;;5037454;28;20453;-55
2022/11/29 14:46:16;;;;;;;7.47;6.43;;;;;;;;;;5064458;28;20455;-55
2022/11/29 14:48:45;;;;;;;9.23;7.10;;;;;;;;;;5059540;28;20477;-55
2022/11/29 14:51:12;;;;;;;9.73;7.27;;;;;;;;;;5053036;28;20491;-54
2022/11/29 14:53:39;;;;;;;9.83;7.00;;;;;;;;;;5032407;28;20476;-56
2022/11/29 14:56:23;;;;;;;11.53;7.73;;;;;;;;;;5071345;28;20440;-54
2022/11/29 14:59:09;;;;;;;7.57;5.50;;;;;;;;;;5054796;28;20437;-53
2022/11/29 15:01:36;;;;;;;7.33;5.70;;;;;;;;;;5061102;28;20444;-55
2022/11/29 15:04:02;;;;;;;8.27;6.47;;;;;;;;;;5054377;28;20436;-54
2022/11/29 15:06:29;;;;;;;8.30;6.10;;;;;;;;;;5056928;28;20442;-56
2022/11/29 15:09:01;;;;;;;8.07;6.80;;;;;;;;;;5053376;28;20580;-54
2022/11/29 15:11:49;;;;;;;7.30;6.70;;;;;;;;;;5064507;28;20429;-56